Time;durP1;ratioP1;P1;durP2;ratioP2;P2;SDS_P1;SDS_P2;PMS_P1;PMS_P2;Temp;Humidity;BMP_temperature;BMP_pressure;BME280_temperature;BME280_humidity;BME280_pressure;Samples;Min_cycle;Max_cycle;Signal;HPM_P1;HPM_P2
2023/02/28 00:01:28;;;;;;;;;;;;;;;-0.81;67.07;98239.02;109056;1250;102634;-71
2023/02/28 00:03:56;;;;;;;;;;;;;;;-0.80;67.04;98247.48;109018;1251;101490;-71
2023/02/28 00:06:24;;;;;;;;;;;;;;;-0.83;67.12;98247.87;109008;1251;99991;-75
2023/02/28 00:08:52;;;;;;;;;;;;;;;-0.85;67.13;98248.39;108672;1251;95632;-73
2023/02/28 00:11:20;;;;;;;;;;;;;;;-0.86;67.21;98252.04;108806;1251;96097;-72
2023/02/28 00:13:48;;;;;;;;;;;;;;;-0.87;67.41;98253.55;109031;1249;103664;-72
2023/02/28 00:16:18;;;;;;;;;;;;;;;-0.88;67.47;98262.10;109038;1251;101393;-72
2023/02/28 00:18:47;;;;;;;;;;;;;;;-0.89;67.36;98268.74;109040;1250;99978;-74
2023/02/28 00:21:15;;;;;;;;;;;;;;;-0.90;67.40;98271.77;108973;1251;95503;-72
2023/02/28 00:23:43;;;;;;;;;;;;;;;-0.90;67.57;98269.84;109099;1250;95637;-73
2023/02/28 00:26:11;;;;;;;;;;;;;;;-0.92;67.68;98270.52;109092;1250;103797;-72
2023/02/28 00:28:39;;;;;;;;;;;;;;;-0.93;67.78;98267.42;109025;1250;101427;-74
2023/02/28 00:31:07;;;;;;;;;;;;;;;-0.94;67.91;98266.25;109050;1250;98997;-72
2023/02/28 00:33:35;;;;;;;;;;;;;;;-0.94;68.03;98261.84;109052;1250;95536;-71
2023/02/28 00:36:07;;;;;;;;;;;;;;;-0.95;67.92;98264.02;109052;1251;95628;-71
2023/02/28 00:38:36;;;;;;;;;;;;;;;-0.96;67.91;98266.96;109041;1249;103313;-73
2023/02/28 00:41:04;;;;;;;;;;;;;;;-0.98;67.88;98270.14;109060;1249;101346;-72
2023/02/28 00:43:35;;;;;;;;;;;;;;;-1.00;67.70;98269.58;109033;1249;100122;-74
2023/02/28 00:46:04;;;;;;;;;;;;;;;-1.01;67.60;98275.86;109065;1250;95478;-72
2023/02/28 00:48:32;;;;;;;;;;;;;;;-1.02;67.50;98276.83;109027;1250;95615;-77
2023/02/28 00:51:00;;;;;;;;;;;;;;;-1.03;67.69;98278.45;109057;1251;103032;-72
2023/02/28 00:53:28;;;;;;;;;;;;;;;-1.03;67.79;98280.27;108962;1251;101259;-72
2023/02/28 00:55:56;;;;;;;;;;;;;;;-1.03;67.91;98278.81;109045;1250;100134;-72
2023/02/28 00:58:24;;;;;;;;;;;;;;;-1.04;67.94;98279.96;108635;1250;95795;-72
2023/02/28 01:00:53;;;;;;;;;;;;;;;-1.05;68.00;98278.79;108748;1249;95709;-71
2023/02/28 01:03:22;;;;;;;;;;;;;;;-1.05;68.02;98277.55;108774;1251;103034;-74
2023/02/28 01:05:50;;;;;;;;;;;;;;;-1.06;67.86;98276.55;109032;1250;101417;-76
2023/02/28 01:08:18;;;;;;;;;;;;;;;-1.07;67.81;98274.87;109005;1250;100210;-72
2023/02/28 01:10:46;;;;;;;;;;;;;;;-1.09;67.90;98273.74;109015;1250;95504;-72
2023/02/28 01:13:14;;;;;;;;;;;;;;;-1.09;67.96;98265.81;109074;1249;95710;-72
2023/02/28 01:15:46;;;;;;;;;;;;;;;-1.08;67.90;98263.81;109058;1251;102506;-71
2023/02/28 01:18:14;;;;;;;;;;;;;;;-1.08;67.92;98261.17;109068;1250;101625;-73
2023/02/28 01:20:42;;;;;;;;;;;;;;;-1.09;67.89;98255.92;109028;1250;99973;-73
2023/02/28 01:23:10;;;;;;;;;;;;;;;-1.11;67.77;98255.70;108974;1249;95541;-72
2023/02/28 01:25:38;;;;;;;;;;;;;;;-1.13;67.66;98258.16;109040;1250;95676;-73
2023/02/28 01:28:07;;;;;;;;;;;;;;;-1.16;67.60;98259.63;109021;1251;103918;-72
2023/02/28 01:30:35;;;;;;;;;;;;;;;-1.18;67.51;98262.27;108973;1251;101506;-72
2023/02/28 01:33:03;;;;;;;;;;;;;;;-1.20;67.63;98268.60;108978;1251;100095;-73
2023/02/28 01:35:33;;;;;;;;;;;;;;;-1.23;67.81;98271.83;109020;1249;95855;-72
2023/02/28 01:38:02;;;;;;;;;;;;;;;-1.26;67.79;98268.20;109056;1250;95597;-75
2023/02/28 01:40:30;;;;;;;;;;;;;;;-1.27;67.74;98266.14;109054;1250;103923;-75
2023/02/28 01:42:58;;;;;;;;;;;;;;;-1.28;67.56;98264.81;109037;1250;101573;-72
2023/02/28 01:45:30;;;;;;;;;;;;;;;-1.29;67.52;98260.50;108971;1249;99357;-73
2023/02/28 01:48:04;;;;;;;;;;;;;;;-1.30;67.41;98252.27;109035;1251;95550;-74
2023/02/28 01:50:35;;;;;;;;;;;;;;;-1.31;67.39;98249.13;109040;1249;95660;-71
2023/02/28 01:53:08;;;;;;;;;;;;;;;-1.33;67.34;98250.33;109036;1250;103166;-76
2023/02/28 01:55:36;;;;;;;;;;;;;;;-1.35;67.22;98247.73;108892;1249;101956;-72
2023/02/28 01:58:05;;;;;;;;;;;;;;;-1.39;67.21;98242.36;109022;1249;99034;-74
2023/02/28 02:00:33;;;;;;;;;;;;;;;-1.42;67.10;98241.56;109017;1250;95559;-73
2023/02/28 02:03:06;;;;;;;;;;;;;;;-1.47;67.08;98243.33;109065;1251;95573;-72
2023/02/28 02:05:34;;;;;;;;;;;;;;;-1.51;67.08;98245.41;109077;1249;103278;-72
2023/02/28 02:08:06;;;;;;;;;;;;;;;-1.55;67.00;98244.85;109088;1251;101455;-74
2023/02/28 02:10:36;;;;;;;;;;;;;;;-1.59;66.85;98247.63;108994;1249;99840;-74
2023/02/28 02:13:22;;;;;;;;;;;;;;;-1.64;67.03;98244.10;109001;1251;95536;-75
2023/02/28 02:16:01;;;;;;;;;;;;;;;-1.69;66.93;98237.26;109021;1250;95579;-72
2023/02/28 02:18:32;;;;;;;;;;;;;;;-1.75;66.89;98233.48;109011;1250;103218;-75
2023/02/28 02:21:00;;;;;;;;;;;;;;;-1.82;66.74;98234.66;109070;1251;101180;-73
2023/02/28 02:23:55;;;;;;;;;;;;;;;-1.86;66.59;98231.25;109018;1250;99036;-72
2023/02/28 02:26:30;;;;;;;;;;;;;;;-1.91;66.43;98231.98;108998;1250;95567;-73
2023/02/28 02:29:16;;;;;;;;;;;;;;;-1.97;66.31;98228.05;109026;1250;96453;-73
2023/02/28 02:32:00;;;;;;;;;;;;;;;-2.04;66.38;98225.70;109114;1249;103744;-77
2023/02/28 02:34:35;;;;;;;;;;;;;;;-2.10;66.31;98227.07;108975;1251;101308;-73
2023/02/28 02:37:12;;;;;;;;;;;;;;;-2.15;66.32;98224.60;108984;1250;100113;-72
2023/02/28 02:39:55;;;;;;;;;;;;;;;-2.21;66.25;98219.92;108925;1251;95682;-77
2023/02/28 02:42:30;;;;;;;;;;;;;;;-2.30;66.19;98219.23;108981;1251;95617;-73
2023/02/28 02:45:02;;;;;;;;;;;;;;;-2.38;66.33;98219.93;109053;1249;103780;-72
2023/02/28 02:47:32;;;;;;;;;;;;;;;-2.44;66.41;98221.45;109001;1249;101073;-73
2023/02/28 02:50:02;;;;;;;;;;;;;;;-2.52;66.45;98224.33;109015;1249;99946;-74
2023/02/28 02:52:34;;;;;;;;;;;;;;;-2.61;66.44;98227.98;108970;1250;95537;-74
2023/02/28 02:55:03;;;;;;;;;;;;;;;-2.69;66.44;98232.02;109013;1250;95779;-76
2023/02/28 02:57:35;;;;;;;;;;;;;;;-2.74;66.52;98234.21;109016;1249;102993;-77
2023/02/28 03:00:07;;;;;;;;;;;;;;;-2.83;66.63;98231.35;109057;1251;101360;-73
2023/02/28 03:02:36;;;;;;;;;;;;;;;-2.93;66.73;98233.90;108950;1251;100238;-73
2023/02/28 03:05:15;;;;;;;;;;;;;;;-3.01;66.61;98235.01;109034;1251;95641;-72
2023/02/28 03:07:43;;;;;;;;;;;;;;;-3.10;66.87;98241.33;108920;1253;95591;-75
2023/02/28 03:10:29;;;;;;;;;;;;;;;-3.20;67.01;98245.17;109019;1253;103643;-72
2023/02/28 03:13:02;;;;;;;;;;;;;;;-3.31;67.14;98245.38;108709;1250;101647;-75
2023/02/28 03:15:37;;;;;;;;;;;;;;;-3.35;67.26;98250.09;108795;1249;99910;-73
2023/02/28 03:18:10;;;;;;;;;;;;;;;-3.35;67.37;98252.01;109001;1251;95554;-73
2023/02/28 03:20:41;;;;;;;;;;;;;;;-3.35;67.36;98256.02;108968;1250;95711;-73
2023/02/28 03:23:14;;;;;;;;;;;;;;;-3.36;67.37;98258.06;109018;1250;103340;-72
2023/02/28 03:25:42;;;;;;;;;;;;;;;-3.39;67.24;98261.81;109031;1251;101099;-72
2023/02/28 03:28:10;;;;;;;;;;;;;;;-3.42;67.23;98259.84;108712;1251;99026;-72
2023/02/28 03:30:38;;;;;;;;;;;;;;;-3.44;67.28;98262.64;109002;1250;95544;-76
2023/02/28 03:33:16;;;;;;;;;;;;;;;-3.46;67.16;98261.22;109027;1250;96530;-77
2023/02/28 03:35:51;;;;;;;;;;;;;;;-3.49;67.11;98262.97;109040;1249;103841;-73
2023/02/28 03:38:26;;;;;;;;;;;;;;;-3.53;67.16;98268.73;109050;1250;101154;-73
2023/02/28 03:41:10;;;;;;;;;;;;;;;-3.59;67.17;98271.08;109016;1250;99903;-73
2023/02/28 03:43:41;;;;;;;;;;;;;;;-3.67;67.23;98275.30;108642;1250;96555;-72
2023/02/28 03:46:11;;;;;;;;;;;;;;;-3.72;67.40;98276.18;109029;1251;96414;-72
2023/02/28 03:48:43;;;;;;;;;;;;;;;-3.76;67.41;98273.98;109022;1251;103609;-76
2023/02/28 03:51:14;;;;;;;;;;;;;;;-3.82;67.51;98278.94;109047;1250;101510;-75
2023/02/28 03:53:46;;;;;;;;;;;;;;;-3.85;67.44;98277.71;108976;1251;100091;-72
2023/02/28 03:56:19;;;;;;;;;;;;;;;-3.86;67.54;98279.88;109005;1249;95984;-76
2023/02/28 03:58:55;;;;;;;;;;;;;;;-3.86;67.55;98280.93;108723;1251;95717;-75
2023/02/28 04:01:34;;;;;;;;;;;;;;;-3.86;67.46;98282.23;108929;1251;102689;-75
2023/02/28 04:04:02;;;;;;;;;;;;;;;-3.89;67.37;98284.33;109028;1251;101695;-73
2023/02/28 04:06:32;;;;;;;;;;;;;;;-3.92;67.39;98287.14;108975;1250;99350;-73
2023/02/28 04:09:01;;;;;;;;;;;;;;;-3.95;67.33;98288.95;109016;1251;95547;-74
2023/02/28 04:11:36;;;;;;;;;;;;;;;-3.99;67.27;98289.91;109024;1251;95617;-72
2023/02/28 04:14:05;;;;;;;;;;;;;;;-4.03;67.32;98292.43;108695;1251;103403;-76
2023/02/28 04:16:34;;;;;;;;;;;;;;;-4.06;67.38;98289.27;108894;1251;101656;-73
2023/02/28 04:19:04;;;;;;;;;;;;;;;-4.08;67.56;98289.07;108978;1250;99861;-72
2023/02/28 04:21:38;;;;;;;;;;;;;;;-4.11;67.52;98293.52;108649;1251;95665;-76
2023/02/28 04:24:07;;;;;;;;;;;;;;;-4.14;67.48;98289.84;108714;1250;95658;-73
2023/02/28 04:26:36;;;;;;;;;;;;;;;-4.16;67.55;98289.45;108742;1250;103585;-70
2023/02/28 04:29:05;;;;;;;;;;;;;;;-4.18;67.65;98293.05;109094;1251;101508;-77
2023/02/28 04:31:33;;;;;;;;;;;;;;;-4.19;67.66;98296.30;108737;1251;98886;-72
2023/02/28 04:34:01;;;;;;;;;;;;;;;-4.21;67.72;98293.44;108803;1251;95587;-72
2023/02/28 04:36:29;;;;;;;;;;;;;;;-4.23;67.66;98287.95;109049;1251;95707;-71
2023/02/28 04:38:57;;;;;;;;;;;;;;;-4.25;67.65;98290.88;109016;1251;103583;-72
2023/02/28 04:41:25;;;;;;;;;;;;;;;-4.27;67.72;98290.14;109012;1253;101255;-75
2023/02/28 04:43:53;;;;;;;;;;;;;;;-4.30;67.64;98292.98;109003;1251;99777;-72
2023/02/28 04:46:21;;;;;;;;;;;;;;;-4.33;67.58;98296.33;108990;1251;95545;-73
2023/02/28 04:48:50;;;;;;;;;;;;;;;-4.36;67.60;98299.69;109016;1251;95573;-73
2023/02/28 04:51:19;;;;;;;;;;;;;;;-4.40;67.58;98297.69;109052;1249;103430;-74
2023/02/28 04:53:48;;;;;;;;;;;;;;;-4.43;67.67;98299.41;109027;1251;101276;-76
2023/02/28 04:56:17;;;;;;;;;;;;;;;-4.45;67.73;98300.40;109026;1250;99768;-73
2023/02/28 04:58:45;;;;;;;;;;;;;;;-4.46;67.94;98298.17;109025;1253;95616;-76
2023/02/28 05:01:16;;;;;;;;;;;;;;;-4.47;67.87;98299.14;109016;1250;96450;-72
2023/02/28 05:03:44;;;;;;;;;;;;;;;-4.49;67.93;98297.20;109018;1249;103678;-75
2023/02/28 05:06:13;;;;;;;;;;;;;;;-4.50;67.99;98300.41;109012;1250;101183;-71
2023/02/28 05:08:41;;;;;;;;;;;;;;;-4.53;67.89;98296.53;108976;1249;99881;-72
2023/02/28 05:11:34;;;;;;;;;;;;;;;-4.57;67.89;98296.61;109005;1250;95559;-72
2023/02/28 05:14:07;;;;;;;;;;;;;;;-4.60;67.99;98297.38;108990;1251;95759;-72
2023/02/28 05:16:35;;;;;;;;;;;;;;;-4.66;68.20;98296.69;109078;1251;103224;-71
2023/02/28 05:19:03;;;;;;;;;;;;;;;-4.71;68.15;98296.06;109011;1250;101511;-73
2023/02/28 05:21:35;;;;;;;;;;;;;;;-4.72;68.21;98300.91;108963;1251;108458;-72
2023/02/28 05:24:05;;;;;;;;;;;;;;;-4.73;68.20;98301.80;108969;1251;95597;-72
2023/02/28 05:26:36;;;;;;;;;;;;;;;-4.73;68.24;98305.17;108750;1251;95723;-74
2023/02/28 05:29:04;;;;;;;;;;;;;;;-4.77;68.35;98308.02;108996;1253;103460;-77
2023/02/28 05:31:33;;;;;;;;;;;;;;;-4.79;68.36;98306.58;109022;1251;101255;-72
2023/02/28 05:34:01;;;;;;;;;;;;;;;-4.80;68.38;98312.10;108995;1251;100006;-73
2023/02/28 05:36:29;;;;;;;;;;;;;;;-4.80;68.50;98321.02;108982;1251;95577;-72
2023/02/28 05:38:57;;;;;;;;;;;;;;;-4.80;68.55;98327.01;109092;1251;95601;-72
2023/02/28 05:41:25;;;;;;;;;;;;;;;-4.80;68.56;98331.38;109041;1250;103739;-73
2023/02/28 05:43:53;;;;;;;;;;;;;;;-4.79;68.63;98331.70;108764;1252;101635;-73
2023/02/28 05:46:21;;;;;;;;;;;;;;;-4.79;68.72;98334.68;108710;1251;99943;-73
2023/02/28 05:48:50;;;;;;;;;;;;;;;-4.78;68.74;98339.52;108685;1251;95629;-75
2023/02/28 05:51:18;;;;;;;;;;;;;;;-4.77;68.86;98342.61;109069;1250;96284;-72
2023/02/28 05:53:46;;;;;;;;;;;;;;;-4.76;68.84;98344.33;109038;1250;103771;-73
2023/02/28 05:56:14;;;;;;;;;;;;;;;-4.76;68.88;98345.57;109028;1250;100013;-74
2023/02/28 05:58:42;;;;;;;;;;;;;;;-4.74;68.97;98349.13;109047;1250;99859;-72
2023/02/28 06:01:21;;;;;;;;;;;;;;;-4.72;68.91;98353.19;108981;1251;95632;-72
2023/02/28 06:03:49;;;;;;;;;;;;;;;-4.70;68.86;98348.72;109048;1251;95601;-76
2023/02/28 06:06:17;;;;;;;;;;;;;;;-4.67;69.06;98350.30;109022;1251;103405;-71
2023/02/28 06:08:45;;;;;;;;;;;;;;;-4.65;69.03;98357.34;108712;1251;101137;-73
2023/02/28 06:11:14;;;;;;;;;;;;;;;-4.64;69.07;98364.50;108943;1250;99920;-72
2023/02/28 06:13:42;;;;;;;;;;;;;;;-4.63;69.02;98365.34;109004;1253;95835;-72
2023/02/28 06:16:11;;;;;;;;;;;;;;;-4.61;69.19;98362.06;109040;1251;96484;-72
2023/02/28 06:18:39;;;;;;;;;;;;;;;-4.58;69.14;98365.17;109093;1251;103487;-77
2023/02/28 06:21:08;;;;;;;;;;;;;;;-4.54;69.29;98368.27;109066;1250;101034;-74
2023/02/28 06:23:36;;;;;;;;;;;;;;;-4.49;69.32;98368.01;108999;1251;99946;-73
2023/02/28 06:26:05;;;;;;;;;;;;;;;-4.46;69.31;98371.29;109032;1249;95541;-75
2023/02/28 06:28:33;;;;;;;;;;;;;;;-4.41;69.29;98374.86;109045;1249;95573;-76
2023/02/28 06:31:06;;;;;;;;;;;;;;;-4.37;69.44;98376.33;109019;1249;103721;-72
2023/02/28 06:33:34;;;;;;;;;;;;;;;-4.30;69.45;98375.56;109039;1249;101219;-73
2023/02/28 06:36:02;;;;;;;;;;;;;;;-4.24;69.66;98375.02;108991;1251;99869;-73
2023/02/28 06:38:30;;;;;;;;;;;;;;;-4.20;69.54;98374.54;108995;1251;95581;-73
2023/02/28 06:40:59;;;;;;;;;;;;;;;-4.15;69.42;98375.67;109061;1250;95677;-75
2023/02/28 06:43:30;;;;;;;;;;;;;;;-4.13;69.56;98376.06;108720;1250;104309;-72
2023/02/28 06:46:01;;;;;;;;;;;;;;;-4.10;69.58;98376.92;109066;1251;101604;-73
2023/02/28 06:48:29;;;;;;;;;;;;;;;-4.06;69.66;98375.27;109039;1249;99937;-76
2023/02/28 06:51:04;;;;;;;;;;;;;;;-3.97;69.52;98374.02;109048;1251;95851;-74
2023/02/28 06:53:33;;;;;;;;;;;;;;;-3.92;69.38;98373.52;109088;1250;95601;-73
2023/02/28 06:56:01;;;;;;;;;;;;;;;-3.87;69.45;98371.77;109037;1251;112430;-73
2023/02/28 06:58:29;;;;;;;;;;;;;;;-3.85;69.32;98369.67;108952;1249;101319;-75
2023/02/28 07:00:57;;;;;;;;;;;;;;;-3.81;69.11;98373.50;108953;1250;98323;-76
2023/02/28 07:03:25;;;;;;;;;;;;;;;-3.77;69.00;98372.73;108954;1249;95558;-75
2023/02/28 07:05:53;;;;;;;;;;;;;;;-3.70;68.91;98368.04;109021;1251;95592;-74
2023/02/28 07:08:21;;;;;;;;;;;;;;;-3.64;69.00;98370.63;109031;1251;103593;-73
2023/02/28 07:10:52;;;;;;;;;;;;;;;-3.57;69.11;98373.34;109067;1251;100107;-75
2023/02/28 07:13:21;;;;;;;;;;;;;;;-3.49;69.23;98374.90;108726;1250;99832;-73
2023/02/28 07:16:03;;;;;;;;;;;;;;;-3.41;69.15;98372.61;108722;1250;95699;-73
2023/02/28 07:18:31;;;;;;;;;;;;;;;-3.35;69.21;98372.02;109041;1250;96311;-73
2023/02/28 07:20:59;;;;;;;;;;;;;;;-3.27;69.09;98375.55;109032;1249;103589;-74
2023/02/28 07:23:27;;;;;;;;;;;;;;;-3.24;68.74;98377.63;108988;1249;101019;-73
2023/02/28 07:25:55;;;;;;;;;;;;;;;-3.20;68.47;98378.81;108976;1250;100280;-73
2023/02/28 07:28:23;;;;;;;;;;;;;;;-3.14;68.41;98380.13;109001;1250;95501;-72
2023/02/28 07:30:51;;;;;;;;;;;;;;;-3.07;68.38;98377.73;109016;1249;95875;-73
2023/02/28 07:33:19;;;;;;;;;;;;;;;-2.95;68.19;98377.66;109065;1249;103221;-76
2023/02/28 07:35:47;;;;;;;;;;;;;;;-2.84;67.88;98378.44;109013;1251;101615;-77
2023/02/28 07:38:15;;;;;;;;;;;;;;;-2.72;67.67;98379.37;108985;1250;100013;-75
2023/02/28 07:40:43;;;;;;;;;;;;;;;-2.59;67.41;98372.82;108714;1250;95647;-74
2023/02/28 07:43:11;;;;;;;;;;;;;;;-2.44;67.31;98368.65;109009;1250;95601;-74
2023/02/28 07:45:39;;;;;;;;;;;;;;;-2.33;66.97;98367.46;109060;1250;103179;-72
2023/02/28 07:48:09;;;;;;;;;;;;;;;-2.23;66.94;98360.27;109017;1249;109860;-73
2023/02/28 07:50:37;;;;;;;;;;;;;;;-2.14;66.87;98359.60;109020;1249;99469;-72
2023/02/28 07:53:06;;;;;;;;;;;;;;;-2.00;66.70;98364.76;108640;1251;95645;-73
2023/02/28 07:55:34;;;;;;;;;;;;;;;-1.84;66.58;98360.81;108972;1251;95615;-73
2023/02/28 07:58:02;;;;;;;;;;;;;;;-1.69;66.29;98359.89;108853;1250;228472;-73
2023/02/28 08:00:31;;;;;;;;;;;;;;;-1.53;66.24;98357.64;109004;1251;101756;-72
2023/02/28 08:02:59;;;;;;;;;;;;;;;-1.36;65.95;98352.45;108989;1249;99543;-75
2023/02/28 08:05:27;;;;;;;;;;;;;;;-1.19;65.68;98357.15;109002;1251;95597;-73
2023/02/28 08:07:56;;;;;;;;;;;;;;;-1.02;65.48;98357.70;108728;1251;95785;-72
2023/02/28 08:10:24;;;;;;;;;;;;;;;-0.86;65.27;98357.68;109026;1249;103576;-74
2023/02/28 08:12:52;;;;;;;;;;;;;;;-0.70;65.18;98359.65;109031;1250;101330;-75
2023/02/28 08:15:20;;;;;;;;;;;;;;;-0.56;64.65;98358.90;108982;1250;99861;-73
2023/02/28 08:17:48;;;;;;;;;;;;;;;-0.44;64.43;98357.23;108990;1251;95685;-73
2023/02/28 08:20:16;;;;;;;;;;;;;;;-0.38;63.50;98357.45;108973;1250;95732;-76
2023/02/28 08:22:44;;;;;;;;;;;;;;;-0.28;63.53;98360.61;108944;1251;103524;-76
2023/02/28 08:25:12;;;;;;;;;;;;;;;-0.13;63.31;98360.63;109021;1249;101103;-73
2023/02/28 08:27:40;;;;;;;;;;;;;;;-0.00;62.95;98362.48;108628;1251;99884;-72
2023/02/28 08:30:09;;;;;;;;;;;;;;;0.10;62.41;98361.64;108949;1250;95663;-73
2023/02/28 08:32:37;;;;;;;;;;;;;;;0.20;62.14;98361.36;108381;1256;95732;-73
2023/02/28 08:35:05;;;;;;;;;;;;;;;0.37;62.19;98364.43;108280;1256;103498;-75
2023/02/28 08:37:33;;;;;;;;;;;;;;;0.52;61.95;98367.56;108472;1255;101443;-73
2023/02/28 08:40:02;;;;;;;;;;;;;;;0.71;61.98;98371.14;108564;1255;98518;-73
2023/02/28 08:42:32;;;;;;;;;;;;;;;0.90;61.58;98372.21;108552;1256;95736;-75
2023/02/28 08:45:00;;;;;;;;;;;;;;;1.04;61.28;98376.02;108600;1255;95777;-74
2023/02/28 08:47:28;;;;;;;;;;;;;;;1.18;61.20;98374.63;108600;1256;103527;-74
2023/02/28 08:49:56;;;;;;;;;;;;;;;1.32;61.02;98373.47;108589;1256;101028;-72
2023/02/28 08:52:24;;;;;;;;;;;;;;;1.48;60.68;98365.31;108489;1256;100063;-74
2023/02/28 08:54:52;;;;;;;;;;;;;;;1.56;60.14;98358.41;108416;1256;96114;-76
2023/02/28 08:57:20;;;;;;;;;;;;;;;1.66;59.88;98361.79;108527;1256;95707;-72
2023/02/28 08:59:48;;;;;;;;;;;;;;;1.81;59.88;98360.88;108486;1256;103817;-72
2023/02/28 09:02:16;;;;;;;;;;;;;;;1.97;59.55;98360.77;108487;1256;100372;-73
2023/02/28 09:04:45;;;;;;;;;;;;;;;2.12;59.53;98361.00;108651;1251;98767;-75
2023/02/28 09:07:14;;;;;;;;;;;;;;;2.30;59.44;98361.31;108997;1249;95937;-73
2023/02/28 09:09:53;;;;;;;;;;;;;;;2.44;59.18;98360.74;109024;1250;95699;-73
2023/02/28 09:12:33;;;;;;;;;;;;;;;2.60;59.08;98358.42;109029;1250;103298;-74
2023/02/28 09:15:01;;;;;;;;;;;;;;;2.75;58.17;98353.13;109029;1250;101347;-72
2023/02/28 09:17:29;;;;;;;;;;;;;;;2.90;58.14;98353.92;109050;1250;99444;-73
2023/02/28 09:19:58;;;;;;;;;;;;;;;3.06;57.94;98353.86;108971;1250;95838;-73
2023/02/28 09:22:26;;;;;;;;;;;;;;;3.23;57.58;98348.75;108339;1251;95724;-73
2023/02/28 09:24:54;;;;;;;;;;;;;;;3.35;57.17;98349.75;108966;1250;103639;-74
2023/02/28 09:27:22;;;;;;;;;;;;;;;3.48;57.35;98350.69;108989;1250;101622;-74
2023/02/28 09:29:50;;;;;;;;;;;;;;;3.72;57.37;98345.73;108960;1250;99898;-74
2023/02/28 09:32:18;;;;;;;;;;;;;;;3.95;56.76;98344.19;108963;1249;95570;-74
2023/02/28 09:34:46;;;;;;;;;;;;;;;4.16;56.64;98346.06;108915;1249;95654;-73
2023/02/28 09:37:14;;;;;;;;;;;;;;;4.34;55.83;98344.33;109032;1250;103554;-73
2023/02/28 09:39:42;;;;;;;;;;;;;;;4.42;55.65;98345.29;108704;1249;101337;-74
2023/02/28 09:42:19;;;;;;;;;;;;;;;4.60;55.28;98344.76;108638;1251;100062;-73
2023/02/28 09:44:48;;;;;;;;;;;;;;;4.75;54.55;98342.08;109026;1250;95657;-73
2023/02/28 09:47:28;;;;;;;;;;;;;;;4.90;54.42;98340.41;109092;1250;95717;-76
2023/02/28 09:49:57;;;;;;;;;;;;;;;5.03;54.54;98341.57;108998;1250;103680;-73
2023/02/28 09:52:30;;;;;;;;;;;;;;;5.16;53.86;98343.80;109029;1249;101468;-76
2023/02/28 09:55:02;;;;;;;;;;;;;;;5.27;53.84;98339.77;108670;1251;100222;-73
2023/02/28 09:57:38;;;;;;;;;;;;;;;5.42;53.66;98333.83;109001;1249;95619;-72
2023/02/28 10:00:16;;;;;;;;;;;;;;;5.62;52.95;98331.27;109052;1249;95659;-72
2023/02/28 10:02:49;;;;;;;;;;;;;;;5.74;52.70;98336.78;109057;1250;103494;-73
2023/02/28 10:05:24;;;;;;;;;;;;;;;5.84;52.67;98329.14;109029;1251;101360;-75
2023/02/28 10:08:04;;;;;;;;;;;;;;;6.00;52.60;98331.16;109021;1250;98544;-73
2023/02/28 10:10:44;;;;;;;;;;;;;;;6.11;51.40;98333.63;108967;1249;95516;-75
2023/02/28 10:13:28;;;;;;;;;;;;;;;6.16;50.96;98333.15;109016;1249;95595;-73
2023/02/28 10:16:02;;;;;;;;;;;;;;;6.24;51.03;98333.17;108971;1250;103670;-73
2023/02/28 10:18:35;;;;;;;;;;;;;;;6.37;51.18;98332.45;109040;1250;101061;-74
2023/02/28 10:21:04;;;;;;;;;;;;;;;6.49;50.91;98334.41;109045;1249;99037;-73
2023/02/28 10:23:35;;;;;;;;;;;;;;;6.61;50.29;98333.52;109029;1250;95546;-76
2023/02/28 10:26:20;;;;;;;;;;;;;;;6.60;49.47;98329.46;108976;1250;95569;-73
2023/02/28 10:28:48;;;;;;;;;;;;;;;6.65;50.28;98328.17;108812;1250;103561;-73
2023/02/28 10:31:18;;;;;;;;;;;;;;;6.86;50.48;98324.93;108681;1251;101279;-74
2023/02/28 10:33:47;;;;;;;;;;;;;;;7.06;50.22;98322.36;108974;1250;98975;-73
2023/02/28 10:36:17;;;;;;;;;;;;;;;7.18;49.22;98319.35;109028;1250;95596;-76
2023/02/28 10:38:46;;;;;;;;;;;;;;;7.21;49.10;98317.27;109005;1250;95579;-74
2023/02/28 10:41:18;;;;;;;;;;;;;;;7.22;48.41;98314.15;109007;1250;103206;-77
2023/02/28 10:43:46;;;;;;;;;;;;;;;7.22;48.32;98312.00;108701;1250;100146;-77
2023/02/28 10:46:25;;;;;;;;;;;;;;;7.27;48.30;98307.64;108685;1251;98971;-74
2023/02/28 10:49:07;;;;;;;;;;;;;;;7.40;48.30;98301.74;108715;1251;95714;-75
2023/02/28 10:51:36;;;;;;;;;;;;;;;7.44;48.02;98301.84;108929;1251;95606;-72
2023/02/28 10:54:05;;;;;;;;;;;;;;;7.61;48.15;98301.35;108569;1251;103072;-72
2023/02/28 10:56:33;;;;;;;;;;;;;;;7.84;48.05;98297.64;108925;1250;101278;-74
2023/02/28 10:59:16;;;;;;;;;;;;;;;8.03;47.82;98297.88;108860;1250;100209;-74
2023/02/28 11:01:48;;;;;;;;;;;;;;;8.19;47.02;98297.20;108878;1253;95780;-73
2023/02/28 11:04:29;;;;;;;;;;;;;;;8.28;46.65;98293.41;109067;1250;96531;-74
2023/02/28 11:06:59;;;;;;;;;;;;;;;8.46;46.86;98292.77;109027;1250;103295;-74
2023/02/28 11:09:30;;;;;;;;;;;;;;;8.66;46.95;98285.05;109034;1250;101401;-73
2023/02/28 11:11:58;;;;;;;;;;;;;;;8.82;46.10;98283.40;109019;1250;99822;-75
2023/02/28 11:14:28;;;;;;;;;;;;;;;8.91;45.99;98280.84;108863;1249;95671;-75
2023/02/28 11:17:00;;;;;;;;;;;;;;;8.96;45.41;98277.73;108997;1249;95686;-73
2023/02/28 11:19:29;;;;;;;;;;;;;;;9.02;45.06;98272.41;109070;1250;102075;-77
2023/02/28 11:22:02;;;;;;;;;;;;;;;9.20;45.60;98271.65;108977;1250;101310;-73
2023/02/28 11:24:32;;;;;;;;;;;;;;;9.35;44.77;98269.13;108902;1249;98541;-76
2023/02/28 11:27:00;;;;;;;;;;;;;;;9.32;44.17;98260.19;108581;1251;95637;-73
2023/02/28 11:29:29;;;;;;;;;;;;;;;9.27;44.29;98259.05;109012;1250;95740;-75
2023/02/28 11:32:08;;;;;;;;;;;;;;;9.36;44.09;98257.23;109043;1250;103410;-76
2023/02/28 11:34:37;;;;;;;;;;;;;;;9.25;43.46;98256.76;108984;1250;101368;-76
2023/02/28 11:37:06;;;;;;;;;;;;;;;9.28;44.48;98252.83;108960;1250;98686;-74
2023/02/28 11:39:34;;;;;;;;;;;;;;;9.46;44.03;98246.48;109014;1251;95621;-73
2023/02/28 11:42:21;;;;;;;;;;;;;;;9.57;44.26;98247.98;108894;1250;96098;-74
2023/02/28 11:44:58;;;;;;;;;;;;;;;9.68;43.67;98247.12;108944;1251;102602;-74
2023/02/28 11:47:45;;;;;;;;;;;;;;;9.82;43.68;98245.20;108969;1250;100336;-74
2023/02/28 11:50:45;;;;;;;;;;;;;;;10.01;43.28;98239.69;108925;1250;99710;-75
2023/02/28 11:53:13;;;;;;;;;;;;;;;10.10;42.35;98240.47;108433;1256;96071;-77
2023/02/28 11:55:50;;;;;;;;;;;;;;;10.08;41.76;98235.97;108463;1256;95910;-74
2023/02/28 11:58:21;;;;;;;;;;;;;;;10.00;42.09;98244.70;108518;1256;102293;-74
2023/02/28 12:01:01;;;;;;;;;;;;;;;10.06;42.58;98245.82;108514;1256;101462;-73
2023/02/28 12:03:35;;;;;;;;;;;;;;;10.18;42.55;98246.16;108428;1256;99937;-77
2023/02/28 12:06:03;;;;;;;;;;;;;;;10.01;42.06;98250.73;108474;1255;96053;-74
2023/02/28 12:08:43;;;;;;;;;;;;;;;9.82;42.32;98249.64;108460;1256;96317;-76
2023/02/28 12:11:40;;;;;;;;;;;;;;;9.76;42.70;98253.30;108450;1256;102405;-76
2023/02/28 12:14:23;;;;;;;;;;;;;;;9.93;42.80;98255.44;108194;1260;101289;-73
2023/02/28 12:17:03;;;;;;;;;;;;;;;10.11;42.27;98252.94;108153;1260;100079;-77
2023/02/28 12:19:43;;;;;;;;;;;;;;;10.18;42.28;98249.38;108123;1260;95614;-74
2023/02/28 12:22:20;;;;;;;;;;;;;;;10.26;42.63;98246.55;108183;1260;96612;-74
2023/02/28 12:25:06;;;;;;;;;;;;;;;10.34;41.86;98247.66;108174;1260;102817;-74
2023/02/28 12:27:38;;;;;;;;;;;;;;;10.12;41.80;98245.40;108202;1260;101389;-74
2023/02/28 12:30:14;;;;;;;;;;;;;;;10.11;42.09;98240.73;108262;1257;99874;-74
2023/02/28 12:32:44;;;;;;;;;;;;;;;10.06;41.58;98240.71;108303;1256;95626;-75
2023/02/28 12:35:17;;;;;;;;;;;;;;;9.95;41.49;98236.16;108246;1256;95683;-74
2023/02/28 12:37:51;;;;;;;;;;;;;;;9.92;41.41;98234.71;108388;1257;103685;-74
2023/02/28 12:40:28;;;;;;;;;;;;;;;9.95;42.17;98236.88;108400;1256;101418;-73
2023/02/28 12:42:59;;;;;;;;;;;;;;;10.07;42.10;98238.78;108323;1256;99897;-73
2023/02/28 12:45:33;;;;;;;;;;;;;;;10.19;42.15;98240.11;108316;1256;95771;-76
2023/02/28 12:48:08;;;;;;;;;;;;;;;10.37;42.51;98235.48;108399;1256;95690;-74
2023/02/28 12:50:36;;;;;;;;;;;;;;;10.48;41.74;98231.50;108589;1251;102538;-73
2023/02/28 12:53:08;;;;;;;;;;;;;;;10.45;41.32;98229.06;108915;1251;101227;-74
2023/02/28 12:56:11;;;;;;;;;;;;;;;10.44;40.79;98231.00;108913;1251;99873;-74